Time;durP1;ratioP1;P1;durP2;ratioP2;P2;SDS_P1;SDS_P2;PMS_P1;PMS_P2;Temp;Humidity;BMP_temperature;BMP_pressure;BME280_temperature;BME280_humidity;BME280_pressure;Samples;Min_cycle;Max_cycle;Signal;HPM_P1;HPM_P2
2022/05/16 00:00:01;;;;;;;4.00;3.00;;;;;;;12.02;67.44;100687.94;4975371;28;20039;-77
2022/05/16 00:02:26;;;;;;;6.10;2.63;;;;;;;11.98;67.78;100684.47;4975054;28;20062;-80
2022/05/16 00:04:52;;;;;;;5.05;2.70;;;;;;;11.93;68.18;100696.53;4974861;28;20481;-78
2022/05/16 00:07:21;;;;;;;6.05;3.40;;;;;;;11.91;68.54;100699.84;4974718;28;20027;-78
2022/05/16 00:09:46;;;;;;;5.15;2.90;;;;;;;11.85;68.75;100698.91;4942633;28;20463;-77
2022/05/16 00:12:13;;;;;;;6.25;2.90;;;;;;;11.77;69.25;100694.81;4975018;28;20109;-78
2022/05/16 00:14:40;;;;;;;6.18;2.78;;;;;;;11.73;70.18;100705.59;4943236;28;20042;-78
2022/05/16 00:17:06;;;;;;;4.75;3.10;;;;;;;11.66;70.58;100695.25;4974884;28;20049;-79
2022/05/16 00:19:32;;;;;;;6.45;3.00;;;;;;;11.66;70.80;100708.72;4958566;28;20039;-78
2022/05/16 00:21:59;;;;;;;4.55;2.85;;;;;;;11.62;71.60;100702.41;4958377;28;20121;-78
2022/05/16 00:24:28;;;;;;;6.68;3.42;;;;;;;11.64;72.15;100722.69;4974788;28;20158;-79
2022/05/16 00:27:02;;;;;;;3.58;2.90;;;;;;;11.64;73.08;100708.44;4942696;28;20499;-78
2022/05/16 00:29:28;;;;;;;5.82;2.65;;;;;;;11.60;73.94;100716.34;4974312;28;20062;-77
2022/05/16 00:31:55;;;;;;;4.18;2.78;;;;;;;11.55;75.25;100708.41;4958199;28;20505;-78
2022/05/16 00:34:22;;;;;;;5.82;2.42;;;;;;;11.57;73.55;100709.53;4974409;28;20488;-78
2022/05/16 00:36:48;;;;;;;4.90;2.50;;;;;;;11.61;74.02;100715.06;4974283;28;20411;-78
2022/05/16 00:39:16;;;;;;;4.43;3.15;;;;;;;11.64;74.02;100702.72;4974011;28;20162;-78
2022/05/16 00:41:43;;;;;;;5.85;3.47;;;;;;;11.63;74.39;100706.84;4958259;28;20193;-78
2022/05/16 00:44:24;;;;;;;4.53;2.92;;;;;;;11.65;75.50;100710.00;4975215;28;20037;-79
2022/05/16 00:46:50;;;;;;;7.32;2.67;;;;;;;11.62;74.38;100699.53;4958328;28;20023;-79
2022/05/16 00:49:29;;;;;;;4.40;3.17;;;;;;;11.63;75.42;100704.78;4974215;28;20128;-77
2022/05/16 00:52:16;;;;;;;4.35;3.15;;;;;;;11.64;75.32;100709.19;4975219;28;20468;-79
2022/05/16 00:54:54;;;;;;;5.55;3.08;;;;;;;11.62;74.59;100702.41;4957684;28;20118;-80
2022/05/16 00:57:32;;;;;;;3.97;3.45;;;;;;;11.65;73.42;100710.78;4973522;28;20066;-78
2022/05/16 01:00:14;;;;;;;5.50;2.90;;;;;;;11.65;73.74;100707.13;4957619;28;20022;-78
2022/05/16 01:05:33;;;;;;;;;;;;;;;11.64;72.85;100712.03;4974501;28;20118;-78
2022/05/16 01:08:06;;;;;;;5.20;2.80;;;;;;;11.64;72.04;100708.44;4973005;28;19918;-78
2022/05/16 01:10:33;;;;;;;6.50;2.85;;;;;;;11.65;71.52;100712.84;4974270;28;20388;-77
2022/05/16 01:13:00;;;;;;;4.72;2.75;;;;;;;11.65;71.60;100710.78;4957584;28;20035;-78
2022/05/16 01:15:43;;;;;;;7.28;2.75;;;;;;;11.62;71.73;100706.03;4974685;28;20034;-78
2022/05/16 01:18:11;;;;;;;5.45;2.55;;;;;;;11.63;71.37;100716.19;4973453;28;20109;-78
2022/05/16 01:21:00;;;;;;;4.32;2.35;;;;;;;11.63;71.45;100712.53;4941545;28;20030;-77
2022/05/16 01:23:27;;;;;;;6.65;2.70;;;;;;;11.60;71.28;100714.28;4973761;28;20054;-78
2022/05/16 01:25:53;;;;;;;6.47;2.03;;;;;;;11.58;71.51;100710.31;4941352;28;20022;-78
2022/05/16 01:28:21;;;;;;;5.32;2.88;;;;;;;11.60;71.28;100711.41;4973545;28;20058;-78
2022/05/16 01:30:49;;;;;;;3.72;2.17;;;;;;;11.54;71.03;100710.50;4957380;28;20053;-78
2022/05/16 01:33:17;;;;;;;6.50;3.28;;;;;;;11.57;71.17;100720.94;4974519;28;20034;-77
2022/05/16 01:35:44;;;;;;;5.53;2.38;;;;;;;11.55;71.13;100722.66;4957344;28;20046;-76
2022/05/16 01:38:26;;;;;;;5.28;2.05;;;;;;;11.51;71.67;100727.75;4941420;28;20479;-78
2022/05/16 01:40:51;;;;;;;;;;;;;;;11.45;72.35;100721.88;4959845;28;20034;-79
2022/05/16 01:43:22;;;;;;;3.95;2.72;;;;;;;11.42;71.96;100719.19;4974494;28;20271;-78
2022/05/16 01:45:52;;;;;;;5.22;2.78;;;;;;;11.38;72.35;100721.41;4973415;28;20105;-80
2022/05/16 01:48:19;;;;;;;2.97;2.35;;;;;;;11.35;71.75;100720.28;4973315;28;20113;-77
2022/05/16 01:50:45;;;;;;;5.32;2.45;;;;;;;11.35;71.25;100723.16;4941072;28;20031;-79
2022/05/16 01:53:13;;;;;;;4.43;2.80;;;;;;;11.31;71.41;100713.97;4941180;28;20353;-78
2022/05/16 01:55:40;;;;;;;5.25;2.30;;;;;;;11.27;72.05;100719.03;4943029;28;20034;-78
2022/05/16 01:58:06;;;;;;;4.78;2.45;;;;;;;11.25;72.09;100719.50;4980183;28;20024;-79
2022/05/16 02:00:32;;;;;;;5.75;2.80;;;;;;;11.29;71.79;100721.41;4964274;28;20466;-78
2022/05/16 02:03:00;;;;;;;6.05;2.65;;;;;;;11.26;72.14;100723.94;4981866;28;20026;-78
2022/05/16 02:05:27;;;;;;;4.95;2.67;;;;;;;11.23;72.16;100724.91;4973181;28;20424;-79
2022/05/16 02:07:52;;;;;;;4.30;2.70;;;;;;;11.20;72.41;100725.03;4985478;28;20038;-79
2022/05/16 02:10:24;;;;;;;5.50;2.20;;;;;;;11.19;72.47;100732.03;4980888;28;20487;-78
2022/05/16 02:12:52;;;;;;;5.80;2.75;;;;;;;11.17;72.14;100734.53;4964205;28;20022;-79
2022/05/16 02:15:21;;;;;;;6.97;3.58;;;;;;;11.16;71.93;100727.25;4964203;28;20089;-78
2022/05/16 02:17:48;;;;;;;5.35;2.20;;;;;;;11.14;72.51;100729.78;4948199;28;20034;-78
2022/05/16 02:20:22;;;;;;;5.20;2.17;;;;;;;11.13;72.99;100725.34;4948344;28;20037;-78
2022/05/16 02:25:39;;;;;;;3.85;2.28;;;;;;;11.06;73.12;100720.72;4982641;28;20033;-78
2022/05/16 02:28:07;;;;;;;;;;;;;;;11.07;73.55;100722.31;4997842;28;20030;-79
2022/05/16 02:30:32;;;;;;;3.03;2.42;;;;;;;11.06;73.14;100731.34;4963724;28;20332;-79
2022/05/16 02:33:19;;;;;;;5.20;2.47;;;;;;;11.05;73.22;100727.69;4963635;28;20538;-79
2022/05/16 02:35:46;;;;;;;6.10;2.65;;;;;;;11.04;73.06;100731.84;4994661;28;20050;-78
2022/05/16 02:38:12;;;;;;;5.50;2.92;;;;;;;11.05;72.44;100729.78;4964084;28;20391;-78
2022/05/16 02:40:47;;;;;;;4.53;1.85;;;;;;;11.04;72.75;100728.19;4979576;28;20030;-77
2022/05/16 02:43:13;;;;;;;5.78;2.97;;;;;;;11.03;72.43;100727.41;4979594;28;20033;-78
2022/05/16 02:45:40;;;;;;;6.25;2.60;;;;;;;11.03;72.45;100724.53;4997175;28;20023;-78
2022/05/16 02:48:07;;;;;;;6.05;2.42;;;;;;;11.01;72.69;100724.22;4963460;28;20034;-78
2022/05/16 02:50:47;;;;;;;3.65;2.38;;;;;;;11.02;73.13;100725.81;4997162;28;20026;-79
2022/05/16 02:53:14;;;;;;;4.90;2.28;;;;;;;10.98;72.62;100724.38;4979594;28;20026;-78
2022/05/16 02:55:41;;;;;;;4.95;2.47;;;;;;;10.98;73.03;100721.53;4996720;28;20023;-78
2022/05/16 02:58:09;;;;;;;7.05;2.80;;;;;;;11.00;73.54;100724.69;4963292;28;20023;-78
2022/05/16 03:00:34;;;;;;;7.63;2.88;;;;;;;10.95;72.75;100728.97;4963603;28;20030;-79
2022/05/16 03:03:01;;;;;;;5.53;2.45;;;;;;;10.98;72.87;100718.66;4996869;28;20030;-79
2022/05/16 03:05:26;;;;;;;4.78;2.83;;;;;;;10.98;73.18;100721.53;4994916;28;20030;-79
2022/05/16 03:07:52;;;;;;;3.28;2.30;;;;;;;10.94;72.80;100713.13;4977928;28;20101;-79
2022/05/16 03:10:28;;;;;;;5.93;2.85;;;;;;;10.98;73.63;100721.53;4962605;28;20498;-78
2022/05/16 03:12:54;;;;;;;3.55;2.30;;;;;;;10.98;73.55;100716.63;4963043;28;20117;-78
2022/05/16 03:15:21;;;;;;;5.47;2.95;;;;;;;11.01;73.00;100724.22;4979345;28;20030;-79
2022/05/16 03:17:47;;;;;;;6.13;2.75;;;;;;;11.01;72.58;100715.66;4996668;28;20030;-78
2022/05/16 03:20:15;;;;;;;4.53;2.65;;;;;;;11.05;73.25;100716.28;4962822;28;20066;-79
2022/05/16 03:22:41;;;;;;;5.00;3.08;;;;;;;11.03;73.22;100707.44;4962951;28;20034;-78
2022/05/16 03:25:08;;;;;;;6.53;2.75;;;;;;;11.05;73.11;100710.59;4946845;28;20038;-78
2022/05/16 03:27:34;;;;;;;5.35;2.22;;;;;;;11.10;72.34;100707.13;4962451;28;20030;-78
2022/05/16 03:30:01;;;;;;;4.13;2.53;;;;;;;11.12;72.83;100718.84;4996021;28;20379;-78
2022/05/16 03:32:27;;;;;;;4.00;2.42;;;;;;;11.15;72.79;100712.19;4962459;28;20089;-78
2022/05/16 03:34:55;;;;;;;4.85;2.67;;;;;;;11.11;72.72;100696.50;4978531;28;20109;-79
2022/05/16 03:37:22;;;;;;;9.20;3.10;;;;;;;11.17;72.06;100711.72;4996406;28;20054;-78
2022/05/16 03:42:37;;;;;;;2.97;2.40;;;;;;;11.18;72.31;100699.84;4982030;28;20387;-78
2022/05/16 03:45:04;;;;;;;6.95;2.97;;;;;;;11.24;72.36;100703.69;4995775;28;20538;-79
2022/05/16 03:47:30;;;;;;;3.75;2.85;;;;;;;11.31;72.29;100713.97;4996503;28;20375;-77
2022/05/16 03:49:56;;;;;;;9.95;3.08;;;;;;;11.34;71.99;100712.22;4995164;28;20450;-77
2022/05/16 03:52:26;;;;;;;7.20;3.20;;;;;;;11.36;72.11;100710.47;4978609;28;20030;-77
2022/05/16 03:54:51;;;;;;;5.00;3.00;;;;;;;11.37;72.10;100714.91;4979059;28;20034;-78
2022/05/16 03:57:17;;;;;;;6.75;3.30;;;;;;;11.40;72.09;100716.00;4972655;28;20493;-78
2022/05/16 03:59:43;;;;;;;4.15;2.40;;;;;;;11.42;72.32;100710.63;4958735;28;20428;-78
2022/05/16 04:02:09;;;;;;;6.13;3.42;;;;;;;11.45;72.10;100715.38;4974898;28;20041;-78
2022/05/16 04:04:38;;;;;;;3.72;2.65;;;;;;;11.47;72.44;100716.50;4975024;28;20105;-78
2022/05/16 04:07:04;;;;;;;7.07;4.05;;;;;;;11.46;72.07;100711.28;4958782;28;20030;-78
2022/05/16 04:09:29;;;;;;;5.25;3.17;;;;;;;11.51;71.60;100713.47;4976668;28;20357;-78
2022/05/16 04:11:57;;;;;;;5.35;3.30;;;;;;;11.56;71.55;100712.84;4974867;28;20018;-78
2022/05/16 04:14:31;;;;;;;6.47;3.70;;;;;;;11.60;71.79;100716.34;4958758;28;20026;-79
2022/05/16 04:17:01;;;;;;;5.28;3.92;;;;;;;11.61;71.01;100712.22;4976086;28;20015;-78
2022/05/16 04:19:27;;;;;;;7.53;4.32;;;;;;;11.62;71.34;100717.47;4958210;28;20062;-78
2022/05/16 04:21:54;;;;;;;6.70;3.17;;;;;;;11.65;70.94;100710.00;4974822;28;20050;-78
2022/05/16 04:24:19;;;;;;;6.25;3.10;;;;;;;11.63;71.25;100701.94;4976721;28;20022;-78
2022/05/16 04:26:44;;;;;;;4.68;2.83;;;;;;;11.73;70.53;100716.22;4974908;28;20030;-79
2022/05/16 04:29:12;;;;;;;6.47;3.85;;;;;;;11.83;70.19;100723.50;4973328;28;20139;-78
2022/05/16 04:31:37;;;;;;;5.95;3.33;;;;;;;11.84;69.75;100720.13;4975816;28;20035;-78
2022/05/16 04:34:09;;;;;;;6.35;3.30;;;;;;;11.95;69.37;100728.22;4957149;28;20480;-79
2022/05/16 04:36:36;;;;;;;8.75;3.83;;;;;;;12.02;69.40;100725.84;4958998;28;20031;-80
2022/05/16 04:39:10;;;;;;;5.05;3.13;;;;;;;11.98;69.83;100733.00;4981736;28;20109;-79
2022/05/16 04:44:25;;;;;;;4.63;2.47;;;;;;;12.17;69.60;100728.03;4975637;28;20085;-77
2022/05/16 04:46:52;;;;;;;7.57;3.10;;;;;;;12.29;68.68;100732.72;4973602;28;20026;-78
2022/05/16 04:49:18;;;;;;;5.82;3.40;;;;;;;12.33;68.48;100724.81;4975110;28;20483;-77
2022/05/16 04:51:44;;;;;;;7.53;3.65;;;;;;;12.40;68.23;100722.41;4973903;28;20065;-77
2022/05/16 04:54:12;;;;;;;4.10;3.47;;;;;;;12.42;67.87;100713.34;4957680;28;20046;-80
2022/05/16 04:56:38;;;;;;;5.07;3.08;;;;;;;12.55;67.16;100719.63;4974775;28;20508;-77
2022/05/16 04:59:04;;;;;;;5.57;2.65;;;;;;;12.65;67.15;100718.31;4958134;28;20022;-77
2022/05/16 05:01:31;;;;;;;12.95;6.40;;;;;;;12.72;66.85;100717.97;4957710;28;20026;-76
2022/05/16 05:03:56;;;;;;;6.25;2.22;;;;;;;12.85;66.40;100721.41;4973629;28;20023;-76
2022/05/16 05:06:23;;;;;;;5.50;2.67;;;;;;;12.95;65.89;100714.34;4972414;28;20395;-75
2022/05/16 05:08:48;;;;;;;4.63;2.60;;;;;;;13.06;65.88;100722.41;4974742;28;20047;-76
2022/05/16 05:16:58;;;;;;;3.35;2.35;;;;;;;13.43;64.99;100714.34;4974648;28;20119;-77
2022/05/16 05:19:24;;;;;;;13.40;5.63;;;;;;;13.56;65.06;100717.78;4941463;28;20037;-76
2022/05/16 05:21:50;;;;;;;5.30;2.58;;;;;;;13.60;63.62;100709.00;4957629;28;20027;-74
2022/05/16 05:24:17;;;;;;;3.88;2.33;;;;;;;13.47;64.57;100717.06;4957904;28;20037;-76
2022/05/16 05:26:43;;;;;;;4.40;2.35;;;;;;;13.60;64.56;100709.78;4957239;28;20466;-76
2022/05/16 05:29:15;;;;;;;4.25;2.70;;;;;;;13.66;64.02;100710.69;4973672;28;20122;-85
2022/05/16 05:31:41;;;;;;;4.43;2.80;;;;;;;13.74;64.25;100716.81;4957337;28;20472;-82
2022/05/16 05:34:17;;;;;;;7.10;3.13;;;;;;;13.96;64.00;100716.44;4973364;28;20038;-84
2022/05/16 05:36:54;;;;;;;6.93;2.40;;;;;;;14.12;63.13;100715.94;4958015;28;20027;-83
2022/05/16 05:39:26;;;;;;;10.75;3.17;;;;;;;14.28;62.57;100724.06;4974789;28;20484;-84
2022/05/16 05:41:53;;;;;;;5.47;2.13;;;;;;;14.33;61.38;100726.22;4956590;28;20026;-85
2022/05/16 05:44:18;;;;;;;4.88;2.42;;;;;;;14.49;61.45;100722.09;4976804;28;20019;-85
2022/05/16 05:46:44;;;;;;;4.85;1.83;;;;;;;14.43;59.92;100709.75;4986475;28;20054;-83
2022/05/16 05:49:13;;;;;;;7.68;2.15;;;;;;;14.20;60.30;100666.38;4961312;28;20138;-84
2022/05/16 05:51:40;;;;;;;6.82;2.50;;;;;;;14.69;59.37;100719.28;4978328;28;20027;-84
2022/05/16 05:54:14;;;;;;;3.17;1.95;;;;;;;14.89;59.31;100719.34;4974755;28;20027;-82
2022/05/16 05:56:39;;;;;;;3.80;2.00;;;;;;;14.94;57.63;100714.97;4981568;28;20137;-84
2022/05/16 05:59:06;;;;;;;8.38;1.65;;;;;;;15.04;57.68;100728.69;4984821;28;20138;-81
2022/05/16 06:01:33;;;;;;;3.72;1.88;;;;;;;15.15;57.94;100722.28;4963992;28;20089;-82
2022/05/16 06:03:58;;;;;;;4.07;1.98;;;;;;;15.41;57.20;100723.19;4973259;28;20034;-83
2022/05/16 06:06:29;;;;;;;4.32;1.65;;;;;;;15.73;56.78;100718.38;4957013;28;20019;-78
2022/05/16 06:08:56;;;;;;;4.80;2.10;;;;;;;15.91;55.87;100718.06;4974292;28;20023;-76
2022/05/16 06:11:27;;;;;;;3.78;1.63;;;;;;;16.25;54.81;100724.91;4974277;28;20104;-77
2022/05/16 06:13:55;;;;;;;3.47;1.42;;;;;;;16.47;53.58;100715.72;4972924;28;20093;-80
2022/05/16 06:16:23;;;;;;;3.92;1.70;;;;;;;16.51;52.64;100718.34;4969973;28;20495;-79
2022/05/16 06:18:49;;;;;;;2.58;1.55;;;;;;;16.67;53.24;100706.22;4974226;28;20080;-78
2022/05/16 06:21:15;;;;;;;3.78;1.38;;;;;;;16.92;52.81;100713.19;4956755;28;20027;-78
2022/05/16 06:23:41;;;;;;;4.97;1.85;;;;;;;17.23;51.72;100713.88;4972242;28;20515;-79
2022/05/16 06:26:07;;;;;;;6.55;1.30;;;;;;;17.72;50.46;100717.53;4972743;28;20058;-77
2022/05/16 06:28:38;;;;;;;2.55;1.98;;;;;;;19.12;48.51;100701.88;4977597;28;20038;-78
2022/05/16 06:31:08;;;;;;;8.52;2.05;;;;;;;20.96;43.21;100698.63;4975501;28;20046;-79
2022/05/16 06:33:34;;;;;;;3.50;1.38;;;;;;;22.78;37.31;100695.84;4983556;28;20513;-80
2022/05/16 06:36:03;;;;;;;6.50;1.60;;;;;;;24.31;33.11;100700.34;4963444;28;20134;-79
2022/05/16 06:38:32;;;;;;;3.42;1.65;;;;;;;25.72;31.06;100693.88;4963707;28;20050;-79
2022/05/16 06:40:59;;;;;;;2.67;1.38;;;;;;;27.14;30.18;100699.03;4980930;28;20049;-79
2022/05/16 06:43:27;;;;;;;1.90;0.90;;;;;;;28.51;28.61;100687.63;4969710;28;20037;-79
2022/05/16 06:45:54;;;;;;;3.85;2.00;;;;;;;29.42;25.53;100697.81;4973356;28;20069;-77
2022/05/16 06:48:23;;;;;;;4.07;1.38;;;;;;;30.74;23.72;100698.63;4959434;28;20081;-78
2022/05/16 06:50:50;;;;;;;3.38;1.70;;;;;;;31.90;22.20;100695.97;4959548;28;20039;-79
2022/05/16 06:53:26;;;;;;;3.25;1.92;;;;;;;32.42;22.64;100696.19;4975653;28;20349;-80
2022/05/16 06:55:54;;;;;;;3.25;1.55;;;;;;;32.62;21.82;100688.81;4963425;28;20043;-79
2022/05/16 06:58:19;;;;;;;4.88;1.95;;;;;;;33.73;20.77;100684.97;4978993;28;20109;-79
2022/05/16 07:00:50;;;;;;;4.25;1.70;;;;;;;33.94;19.54;100701.13;4995793;28;20126;-80
2022/05/16 07:03:16;;;;;;;4.40;1.45;;;;;;;34.22;19.95;100694.19;4978835;28;20015;-78
2022/05/16 07:05:44;;;;;;;2.35;1.30;;;;;;;35.25;18.32;100703.06;4979084;28;20030;-79
2022/05/16 07:08:10;;;;;;;2.17;1.42;;;;;;;36.05;17.27;100697.56;4963166;28;20487;-78
2022/05/16 07:10:36;;;;;;;2.22;1.33;;;;;;;36.01;17.06;100707.00;4998478;28;20084;-77
2022/05/16 07:13:02;;;;;;;6.18;1.67;;;;;;;35.92;18.09;100696.06;4968027;28;20042;-79
2022/05/16 07:15:29;;;;;;;3.42;1.67;;;;;;;36.35;16.17;100696.41;4981915;28;20490;-78
2022/05/16 07:17:54;;;;;;;3.65;1.70;;;;;;;35.99;17.50;100695.00;4984246;28;20049;-78
2022/05/16 07:20:29;;;;;;;3.05;1.42;;;;;;;37.20;16.41;100696.03;4979745;28;20015;-79
2022/05/16 07:22:58;;;;;;;12.10;2.33;;;;;;;37.88;16.36;100694.41;4978933;28;20061;-78
2022/05/16 07:25:25;;;;;;;3.97;1.70;;;;;;;38.28;14.49;100695.72;4976919;28;20022;-78
2022/05/16 07:27:57;;;;;;;4.93;2.20;;;;;;;37.45;16.48;100689.16;4963137;28;20053;-79
2022/05/16 07:30:24;;;;;;;2.80;1.50;;;;;;;37.72;15.04;100687.63;4995788;28;20528;-79
2022/05/16 07:32:52;;;;;;;6.03;1.55;;;;;;;36.78;15.03;100682.56;4995496;28;20148;-79
2022/05/16 07:35:20;;;;;;;3.13;1.60;;;;;;;36.95;15.21;100680.50;4995141;28;20026;-78
2022/05/16 07:37:46;;;;;;;2.85;1.50;;;;;;;36.60;16.34;100683.72;4977669;28;20460;-78
2022/05/16 07:40:13;;;;;;;3.97;2.03;;;;;;;37.26;16.33;100683.69;4962231;28;20033;-78
2022/05/16 07:42:40;;;;;;;3.17;1.50;;;;;;;36.65;15.70;100686.28;4995043;28;20026;-77
2022/05/16 07:45:07;;;;;;;3.75;1.55;;;;;;;36.36;15.93;100674.94;4977921;28;20116;-79
2022/05/16 07:47:35;;;;;;;2.83;1.25;;;;;;;36.12;16.64;100673.50;4962041;28;20061;-79
2022/05/16 07:50:10;;;;;;;6.95;2.45;;;;;;;36.78;16.72;100682.56;4978519;28;20113;-78
2022/05/16 07:52:36;;;;;;;2.65;1.42;;;;;;;37.65;14.80;100677.59;4995538;28;20031;-79
2022/05/16 07:55:04;;;;;;;5.63;1.40;;;;;;;38.04;15.18;100680.41;4978997;28;20034;-79
2022/05/16 07:57:31;;;;;;;2.75;1.10;;;;;;;37.44;15.43;100669.03;4975039;28;20058;-80
2022/05/16 07:59:58;;;;;;;2.40;1.50;;;;;;;37.63;16.07;100671.56;4976568;28;20054;-78
2022/05/16 08:02:23;;;;;;;1.65;1.17;;;;;;;37.28;16.22;100677.09;4974640;28;20081;-79
2022/05/16 08:04:51;;;;;;;2.20;1.40;;;;;;;37.08;16.85;100671.59;4974999;28;20054;-80
2022/05/16 08:07:18;;;;;;;4.38;1.30;;;;;;;36.59;16.35;100677.00;4974895;28;20019;-78
2022/05/16 08:12:34;;;;;;;2.70;1.90;;;;;;;36.89;15.53;100674.22;4975988;28;20050;-79
2022/05/16 08:15:02;;;;;;;2.97;1.27;;;;;;;37.03;16.41;100669.81;4971889;28;20031;-79
2022/05/16 08:17:29;;;;;;;2.80;1.25;;;;;;;35.91;16.02;100677.50;4975113;28;20046;-79
2022/05/16 08:19:57;;;;;;;2.83;1.23;;;;;;;36.01;16.25;100670.63;4975978;28;20030;-80
2022/05/16 08:22:42;;;;;;;3.15;1.58;;;;;;;35.99;16.25;100670.50;4982735;28;20027;-77
2022/05/16 08:25:09;;;;;;;2.13;0.93;;;;;;;36.12;16.15;100676.47;4984066;28;20030;-77
2022/05/16 08:27:35;;;;;;;2.30;0.90;;;;;;;36.49;15.08;100679.41;4960026;28;20042;-78
2022/05/16 08:30:03;;;;;;;2.55;0.95;;;;;;;36.72;14.73;100667.38;4975919;28;20022;-76
2022/05/16 08:32:29;;;;;;;2.17;1.17;;;;;;;36.60;15.76;100668.88;4974257;28;20031;-75
2022/05/16 08:35:01;;;;;;;1.83;0.82;;;;;;;36.83;14.68;100673.88;4974582;28;20031;-78
2022/05/16 08:40:12;;;;;;;3.00;1.00;;;;;;;37.08;14.72;100679.75;4975319;28;20037;-76
2022/05/16 08:43:02;;;;;;;2.95;0.93;;;;;;;36.72;13.32;100679.25;4957659;28;20522;-76
2022/05/16 08:45:34;;;;;;;2.05;0.77;;;;;;;36.46;15.65;100674.00;4958494;28;20039;-76
2022/05/16 08:48:12;;;;;;;0.98;0.85;;;;;;;36.31;14.52;100679.09;4957580;28;20030;-76
2022/05/16 08:51:05;;;;;;;0.70;0.70;;;;;;;36.29;15.96;100675.25;4957560;28;20357;-76
2022/05/16 08:53:51;;;;;;;2.38;1.20;;;;;;;36.28;13.82;100676.69;4975204;28;20034;-76
2022/05/16 08:56:22;;;;;;;2.17;0.75;;;;;;;36.24;15.58;100671.28;4980237;28;20501;-75
2022/05/16 08:58:58;;;;;;;2.17;0.80;;;;;;;36.23;16.63;100674.91;4977468;28;20040;-76
2022/05/16 09:01:28;;;;;;;2.05;1.00;;;;;;;35.99;14.85;100683.13;4994817;28;20026;-79
2022/05/16 09:04:06;;;;;;;2.58;0.88;;;;;;;35.37;15.44;100668.25;4994446;28;20053;-77
2022/05/16 09:07:05;;;;;;;1.63;0.80;;;;;;;35.10;17.47;100669.56;4975781;28;20026;-77
2022/05/16 09:09:42;;;;;;;2.45;1.20;;;;;;;34.26;15.93;100676.69;4977344;28;20033;-75
2022/05/16 09:12:18;;;;;;;7.07;1.85;;;;;;;33.87;15.96;100675.50;4976796;28;20112;-74
2022/05/16 09:14:59;;;;;;;3.42;1.02;;;;;;;34.02;15.79;100669.91;4961059;28;20068;-74
2022/05/16 09:17:32;;;;;;;1.10;0.90;;;;;;;34.21;15.89;100660.84;4978200;28;20100;-83
2022/05/16 09:20:25;;;;;;;2.45;1.00;;;;;;;34.33;16.84;100672.72;4994954;28;20030;-81
2022/05/16 09:23:17;;;;;;;0.98;0.90;;;;;;;34.62;18.16;100670.19;4996095;28;20050;-74
2022/05/16 09:26:25;;;;;;;1.75;0.93;;;;;;;34.40;17.22;100665.00;4994214;28;20018;-77
2022/05/16 09:28:58;;;;;;;0.88;0.60;;;;;;;34.07;17.70;100653.97;4899138;29;20514;-78
2022/05/16 09:31:40;;;;;;;3.13;0.80;;;;;;;33.56;17.56;100646.03;4915362;29;20128;-81
2022/05/16 09:34:09;;;;;;;1.10;0.98;;;;;;;33.32;18.31;100648.09;4901348;29;20052;-81
2022/05/16 09:36:38;;;;;;;4.20;1.60;;;;;;;32.94;18.12;100646.91;4884855;29;20044;-81
2022/05/16 09:39:06;;;;;;;2.17;0.70;;;;;;;32.63;18.32;100646.13;4923339;28;20297;-83
2022/05/16 09:41:34;;;;;;;1.27;0.73;;;;;;;32.40;18.06;100637.84;4977915;28;20018;-84
2022/05/16 09:44:12;;;;;;;5.65;0.75;;;;;;;32.09;19.43;100631.06;4994865;28;20383;-82
2022/05/16 09:46:41;;;;;;;1.65;1.33;;;;;;;31.81;19.32;100643.69;4960385;28;20030;-81
2022/05/16 09:49:21;;;;;;;1.10;0.85;;;;;;;31.47;20.10;100627.88;4975803;28;20058;-83
2022/05/16 09:51:53;;;;;;;0.85;0.70;;;;;;;31.23;19.63;100631.91;4979020;28;20033;-83
2022/05/16 09:54:36;;;;;;;2.13;0.63;;;;;;;30.90;18.48;100640.31;4975430;28;20372;-82
2022/05/16 09:57:21;;;;;;;1.30;0.55;;;;;;;30.79;20.88;100646.78;4969236;28;20038;-83
2022/05/16 09:59:58;;;;;;;2.90;1.20;;;;;;;30.54;19.59;100649.19;4977014;28;20044;-81
2022/05/16 10:02:36;;;;;;;2.58;0.80;;;;;;;30.02;19.51;100628.75;4995702;28;20081;-83
2022/05/16 10:05:20;;;;;;;4.40;0.85;;;;;;;29.77;21.07;100642.78;4977034;28;20023;-82
2022/05/16 10:08:11;;;;;;;3.45;1.27;;;;;;;28.77;20.44;100639.34;4994837;28;20045;-82
2022/05/16 10:10:39;;;;;;;1.73;1.08;;;;;;;28.79;21.90;100645.41;4978319;28;20037;-81
2022/05/16 10:13:06;;;;;;;2.17;1.00;;;;;;;28.86;22.08;100643.78;4978321;28;20038;-82
2022/05/16 10:15:32;;;;;;;8.60;1.30;;;;;;;28.93;20.98;100639.97;4977896;28;20121;-83
2022/05/16 10:18:02;;;;;;;1.15;0.70;;;;;;;28.88;23.06;100635.91;4979705;28;20038;-84
2022/05/16 10:20:32;;;;;;;1.98;0.70;;;;;;;29.00;20.96;100633.28;4964883;28;20034;-84
2022/05/16 10:23:04;;;;;;;1.95;0.90;;;;;;;28.92;21.72;100627.47;4998077;28;20101;-84
2022/05/16 10:25:55;;;;;;;4.93;0.98;;;;;;;29.04;22.94;100637.34;4963058;28;20022;-81
2022/05/16 10:28:46;;;;;;;0.80;0.80;;;;;;;28.94;23.55;100632.75;4959038;28;20118;-84
2022/05/16 10:34:33;;;;;;;0.90;0.75;;;;;;;28.87;22.62;100622.63;4964147;28;20129;-85
2022/05/16 10:36:59;;;;;;;1.37;0.90;;;;;;;28.86;23.42;100632.06;4980562;28;20058;-85
2022/05/16 10:39:27;;;;;;;0.90;0.70;;;;;;;28.56;21.85;100627.19;4979109;28;20703;-85
2022/05/16 10:41:57;;;;;;;1.38;0.88;;;;;;;28.24;22.77;100616.28;4968684;28;20033;-84
2022/05/16 10:44:29;;;;;;;1.65;0.70;;;;;;;28.19;24.07;100618.09;5000701;28;20037;-84
2022/05/16 10:47:27;;;;;;;3.53;1.15;;;;;;;27.97;25.40;100616.06;4983572;28;20042;-85
2022/05/16 10:50:26;;;;;;;1.15;0.60;;;;;;;27.65;22.63;100613.09;4980071;28;20113;-83
2022/05/16 10:53:24;;;;;;;1.38;0.77;;;;;;;27.59;22.45;100607.47;4963406;28;20030;-82
2022/05/16 10:56:31;;;;;;;3.63;1.00;;;;;;;27.43;23.78;100605.97;4949633;28;20068;-83
2022/05/16 10:59:12;;;;;;;2.28;0.68;;;;;;;27.03;22.75;100608.81;4918444;28;20105;-85
2022/05/16 11:02:01;;;;;;;1.30;0.90;;;;;;;26.75;27.58;100597.28;4979095;28;20054;-83
2022/05/16 11:04:47;;;;;;;1.92;0.82;;;;;;;26.63;25.66;100600.66;4980248;28;20034;-83
2022/05/16 11:07:30;;;;;;;4.20;1.17;;;;;;;26.21;24.06;100587.72;4963352;28;20034;-82
2022/05/16 11:10:19;;;;;;;2.67;0.90;;;;;;;26.25;26.08;100578.63;4979181;28;20034;-81
2022/05/16 11:12:44;;;;;;;2.33;0.80;;;;;;;26.12;23.81;100586.16;4963086;28;20034;-84
2022/05/16 11:15:34;;;;;;;4.30;1.00;;;;;;;25.95;23.61;100585.19;4999508;28;20030;-84
2022/05/16 11:18:25;;;;;;;2.15;0.77;;;;;;;25.59;26.21;100577.31;4973474;28;20296;-84
2022/05/16 11:20:56;;;;;;;5.00;1.00;;;;;;;25.66;25.58;100581.59;4989652;28;20055;-83
2022/05/16 11:23:44;;;;;;;2.88;0.95;;;;;;;25.68;26.02;100594.25;4953778;28;20057;-84
2022/05/16 11:26:34;;;;;;;6.88;1.05;;;;;;;25.62;25.35;100587.81;4985069;28;20103;-85
2022/05/16 11:29:20;;;;;;;2.40;1.20;;;;;;;25.68;24.10;100581.78;4987141;28;20488;-85
2022/05/16 11:32:14;;;;;;;6.95;1.20;;;;;;;25.68;23.89;100584.72;5005430;28;20026;-84
2022/05/16 11:35:29;;;;;;;2.03;0.80;;;;;;;25.56;25.30;100587.19;4982698;28;20026;-85
2022/05/16 11:38:22;;;;;;;2.20;0.93;;;;;;;25.67;27.46;100578.09;4995648;28;20443;-83
2022/05/16 11:40:56;;;;;;;2.72;0.80;;;;;;;25.52;26.34;100574.31;4981101;28;20030;-84
2022/05/16 11:43:26;;;;;;;1.52;0.95;;;;;;;25.53;26.43;100582.50;4995652;28;20117;-80
2022/05/16 11:46:28;;;;;;;1.48;0.80;;;;;;;25.45;25.06;100563.41;4995998;28;20484;-82
2022/05/16 11:49:26;;;;;;;0.68;0.60;;;;;;;25.26;27.12;100541.16;4995952;28;20026;-82
2022/05/16 11:52:29;;;;;;;1.70;0.80;;;;;;;25.30;27.30;100558.28;4994540;28;20430;-82
2022/05/16 11:55:04;;;;;;;0.77;0.70;;;;;;;25.30;25.65;100553.25;4999112;28;20074;-85
2022/05/16 12:00:32;;;;;;;1.35;0.65;;;;;;;25.24;25.09;100546.78;4995183;28;20092;-83
2022/05/16 12:02:59;;;;;;;0.75;0.60;;;;;;;25.15;24.61;100552.41;4996450;28;20105;-81
2022/05/16 12:05:26;;;;;;;1.30;0.82;;;;;;;25.13;25.69;100555.09;4996025;28;20030;-80
2022/05/16 12:08:20;;;;;;;1.08;0.85;;;;;;;25.10;25.63;100553.34;4995626;28;20022;-80
2022/05/16 12:10:57;;;;;;;1.33;0.70;;;;;;;25.09;25.20;100543.81;4981295;28;20054;-80
2022/05/16 12:13:31;;;;;;;2.13;0.90;;;;;;;25.07;24.22;100546.50;4994849;28;20022;-78
2022/05/16 12:16:18;;;;;;;1.40;0.70;;;;;;;25.16;26.72;100540.13;4967068;28;20551;-79